createdAt,value
2022-08-23T00:02:38.527Z,54.28
2022-08-23T00:05:45.126Z,54.18
2022-08-23T00:08:48.881Z,54.75
2022-08-23T00:11:53.778Z,55.40
2022-08-23T00:14:56.635Z,55.51
2022-08-23T00:18:01.661Z,55.45
2022-08-23T00:21:06.078Z,55.48
2022-08-23T00:24:09.529Z,55.56
2022-08-23T00:27:14.561Z,55.75
2022-08-23T00:30:17.805Z,56.07
2022-08-23T00:33:21.183Z,56.09
2022-08-23T00:36:25.215Z,55.25
2022-08-23T00:39:27.885Z,55.87
2022-08-23T00:42:52.622Z,56.29
2022-08-23T00:46:18.482Z,56.68
2022-08-23T00:49:22.437Z,56.70
2022-08-23T00:52:30.415Z,56.05
2022-08-23T00:55:34.272Z,56.29
2022-08-23T00:58:37.278Z,56.46
2022-08-23T01:01:39.985Z,56.79
2022-08-23T01:04:44.767Z,56.85
2022-08-23T01:07:51.352Z,56.69
2022-08-23T01:10:56.478Z,57.28
2022-08-23T01:14:03.392Z,57.00
2022-08-23T01:17:09.549Z,56.46
2022-08-23T01:20:16.730Z,56.74
2022-08-23T01:23:27.749Z,57.20
2022-08-23T01:26:31.962Z,57.15
2022-08-23T01:29:34.591Z,57.64
2022-08-23T01:32:45.583Z,57.29
2022-08-23T01:35:50.994Z,57.16
2022-08-23T01:38:54.938Z,56.78
2022-08-23T01:41:57.528Z,57.36
2022-08-23T01:45:01.255Z,57.97
2022-08-23T01:48:04.771Z,58.52
2022-08-23T01:51:07.954Z,58.72
2022-08-23T01:54:11.999Z,59.09
2022-08-23T01:57:14.731Z,60.01
2022-08-23T02:00:18.343Z,59.54
2022-08-23T02:03:21.863Z,58.93
2022-08-23T02:06:24.497Z,59.25
2022-08-23T02:09:28.453Z,59.68
2022-08-23T02:12:31.288Z,59.68
2022-08-23T02:15:34.626Z,59.80
2022-08-23T02:18:37.180Z,59.77
2022-08-23T02:21:41.524Z,60.50
2022-08-23T02:24:47.331Z,60.63
2022-08-23T02:27:50.006Z,60.62
2022-08-23T02:30:53.967Z,60.91
2022-08-23T02:37:17.361Z,61.36
2022-08-23T02:40:22.388Z,61.07
2022-08-23T02:43:25.095Z,61.34
2022-08-23T02:46:28.111Z,61.60
2022-08-23T02:49:31.049Z,61.76
2022-08-23T02:52:34.253Z,61.36
2022-08-23T02:55:38.615Z,60.91
2022-08-23T02:58:41.863Z,61.18
2022-08-23T03:01:48.538Z,61.70
2022-08-23T03:04:51.269Z,62.32
2022-08-23T03:07:54.069Z,62.59
2022-08-23T03:10:58.171Z,62.29
2022-08-23T03:14:02.130Z,62.32
2022-08-23T03:17:05.159Z,62.44
2022-08-23T03:20:09.197Z,62.89
2022-08-23T03:23:12.573Z,62.57
2022-08-23T03:26:16.655Z,62.36
2022-08-23T03:29:19.855Z,62.05
2022-08-23T03:32:22.751Z,62.48
2022-08-23T03:35:27.843Z,62.55
2022-08-23T03:38:30.884Z,63.30
2022-08-23T03:41:35.016Z,63.43
2022-08-23T03:44:37.960Z,63.10
2022-08-23T03:47:40.761Z,62.98
2022-08-23T03:50:43.604Z,63.00
2022-08-23T03:53:49.311Z,63.23
2022-08-23T03:56:55.548Z,63.56
2022-08-23T03:59:59.859Z,63.64
2022-08-23T04:03:02.532Z,62.74
2022-08-23T04:06:05.457Z,63.11
2022-08-23T04:09:08.198Z,63.10
2022-08-23T04:12:17.303Z,63.17
2022-08-23T04:15:20.637Z,63.38
2022-08-23T04:18:23.242Z,64.05
2022-08-23T04:21:26.008Z,63.72
2022-08-23T04:24:28.624Z,64.18
2022-08-23T04:27:33.008Z,64.06
2022-08-23T04:30:35.944Z,64.01
2022-08-23T04:33:40.429Z,64.25
2022-08-23T04:36:46.295Z,64.43
2022-08-23T04:40:15.578Z,64.33
2022-08-23T04:43:19.957Z,64.17
2022-08-23T04:46:22.792Z,63.96
2022-08-23T04:49:25.375Z,63.81
2022-08-23T04:52:28.318Z,63.34
2022-08-23T04:55:31.309Z,63.40
2022-08-23T04:58:39.885Z,63.20
2022-08-23T05:01:42.874Z,62.74
2022-08-23T05:04:45.518Z,62.82
2022-08-23T05:07:48.550Z,62.93
2022-08-23T05:10:51.419Z,62.44
2022-08-23T05:13:56.272Z,62.48
2022-08-23T05:16:58.980Z,62.15
2022-08-23T05:20:01.736Z,62.15
2022-08-23T05:23:04.460Z,61.63
2022-08-23T05:26:08.167Z,61.65
2022-08-23T05:29:12.203Z,61.24
2022-08-23T05:32:14.970Z,61.19
2022-08-23T05:35:18.034Z,61.08
2022-08-23T05:38:21.430Z,61.01
2022-08-23T05:41:37.763Z,60.36
2022-08-23T05:44:42.571Z,60.38
2022-08-23T05:47:46.289Z,60.19
2022-08-23T05:50:52.548Z,59.48
2022-08-23T05:53:58.342Z,59.45
2022-08-23T05:57:00.975Z,59.32
2022-08-23T06:00:07.021Z,59.04
2022-08-23T06:03:10.983Z,58.56
2022-08-23T06:06:15.536Z,58.85
2022-08-23T06:09:19.450Z,58.46
2022-08-23T06:12:22.258Z,57.70
2022-08-23T06:15:26.311Z,57.85
2022-08-23T06:18:28.924Z,57.38
2022-08-23T06:21:32.945Z,57.07
2022-08-23T06:24:35.810Z,56.58
2022-08-23T06:27:38.376Z,56.05
2022-08-23T06:30:42.355Z,55.13
2022-08-23T06:33:45.116Z,54.80
2022-08-23T06:36:49.713Z,54.74
2022-08-23T06:39:52.801Z,54.95
2022-08-23T06:42:55.482Z,55.08
2022-08-23T06:46:10.015Z,54.35
2022-08-23T06:49:13.865Z,53.97
2022-08-23T06:52:16.898Z,53.49
2022-08-23T06:55:19.668Z,53.37
2022-08-23T06:58:22.503Z,53.06
2022-08-23T07:01:48.199Z,52.81
2022-08-23T07:04:53.993Z,52.64
2022-08-23T07:07:56.950Z,52.45
2022-08-23T07:10:59.977Z,52.47
2022-08-23T07:14:04.173Z,52.35
2022-08-23T07:17:09.600Z,51.86
2022-08-23T07:20:12.261Z,51.73
2022-08-23T07:23:15.706Z,51.64
2022-08-23T07:26:18.899Z,51.41
2022-08-23T07:29:22.005Z,51.00
2022-08-23T07:32:25.900Z,50.23
2022-08-23T07:35:28.890Z,49.98
2022-08-23T07:38:31.595Z,48.99
2022-08-23T07:41:35.250Z,48.90
2022-08-23T07:44:38.144Z,48.47
2022-08-23T07:47:46.854Z,47.85
2022-08-23T07:50:57.897Z,47.86
2022-08-23T07:54:02.782Z,47.45
2022-08-23T07:57:05.605Z,47.12
2022-08-23T08:00:09.705Z,46.84
2022-08-23T08:03:15.007Z,46.31
2022-08-23T08:06:20.484Z,45.94
2022-08-23T08:09:23.273Z,45.38
2022-08-23T08:12:26.384Z,44.82
2022-08-23T08:15:28.851Z,44.74
2022-08-23T08:18:32.994Z,44.10
2022-08-23T08:21:36.266Z,43.95
2022-08-23T08:24:42.596Z,42.84
2022-08-23T08:27:45.644Z,42.70
2022-08-23T08:30:48.716Z,42.50
2022-08-23T08:33:52.879Z,42.51
2022-08-23T08:36:58.381Z,41.86
2022-08-23T08:40:01.655Z,41.32
2022-08-23T08:43:16.547Z,40.78
2022-08-23T08:46:26.169Z,40.09
2022-08-23T08:49:36.351Z,39.93
2022-08-23T08:52:40.980Z,39.30
2022-08-23T08:55:47.695Z,39.28
2022-08-23T08:58:52.076Z,38.37
2022-08-23T09:01:54.858Z,38.59
2022-08-23T09:04:59.287Z,37.96
2022-08-23T09:08:17.634Z,37.52
2022-08-23T09:11:30.287Z,36.88
2022-08-23T09:14:57.957Z,36.93
2022-08-23T09:18:07.285Z,35.78
2022-08-23T09:21:12.242Z,35.89
2022-08-23T09:24:15.545Z,35.19
2022-08-23T09:27:19.530Z,34.10
2022-08-23T09:30:22.197Z,33.54
2022-08-23T09:33:27.225Z,32.47
2022-08-23T09:36:34.867Z,32.17
2022-08-23T09:39:39.245Z,30.87
2022-08-23T09:42:43.335Z,30.85
2022-08-23T09:45:57.236Z,28.69
2022-08-23T09:49:01.420Z,29.30
2022-08-23T09:52:22.104Z,28.39
2022-08-23T09:55:31.920Z,28.44
2022-08-23T09:58:38.253Z,27.93
2022-08-23T10:01:40.900Z,28.52
2022-08-23T10:04:45.957Z,28.24
2022-08-23T10:07:57.130Z,28.54
2022-08-23T10:11:04.698Z,28.32
2022-08-23T10:14:07.690Z,27.28
2022-08-23T10:17:19.127Z,27.05
2022-08-23T10:20:30.540Z,26.93
2022-08-23T10:23:45.496Z,26.51
2022-08-23T10:27:01.150Z,26.19
2022-08-23T10:30:06.462Z,25.71
2022-08-23T10:33:14.341Z,25.89
2022-08-23T10:36:24.719Z,25.25
2022-08-23T10:39:30.137Z,24.47
2022-08-23T10:42:39.053Z,24.28
2022-08-23T10:45:43.642Z,25.36
2022-08-23T10:48:51.388Z,26.88
2022-08-23T10:51:54.645Z,27.06
2022-08-23T10:55:01.080Z,26.06
2022-08-23T10:58:08.632Z,26.32
2022-08-23T11:01:14.597Z,25.94
2022-08-23T11:04:23.315Z,25.91
2022-08-23T11:07:28.866Z,25.88
2022-08-23T11:10:42.128Z,25.80
2022-08-23T11:14:00.382Z,26.17
2022-08-23T11:17:06.974Z,25.59
2022-08-23T11:20:11.748Z,25.71
2022-08-23T11:23:15.663Z,25.55
2022-08-23T11:27:07.539Z,25.63
2022-08-23T11:30:47.503Z,25.12
2022-08-23T11:33:53.056Z,24.98
2022-08-23T11:37:27.370Z,24.36
2022-08-23T11:41:08.173Z,24.65
2022-08-23T11:44:26.024Z,24.77
2022-08-23T11:47:39.182Z,24.68
2022-08-23T11:51:02.734Z,24.36
2022-08-23T11:54:22.985Z,23.75
2022-08-23T11:57:33.408Z,23.72
2022-08-23T12:00:54.180Z,23.68
2022-08-23T12:04:00.816Z,23.14
2022-08-23T12:07:11.979Z,23.48
2022-08-23T12:10:17.339Z,23.73
2022-08-23T12:13:46.562Z,24.00
2022-08-23T12:16:49.984Z,23.72
2022-08-23T12:19:56.011Z,23.49
2022-08-23T12:23:07.865Z,23.24
2022-08-23T12:26:15.100Z,23.02
2022-08-23T12:29:27.104Z,22.86
2022-08-23T12:32:36.435Z,22.60
2022-08-23T12:35:48.616Z,23.00
2022-08-23T12:39:04.371Z,23.57
2022-08-23T12:42:13.789Z,22.90
2022-08-23T12:45:18.717Z,23.14
2022-08-23T12:48:25.709Z,23.54
2022-08-23T12:51:29.903Z,23.90
2022-08-23T12:54:39.020Z,20.63
2022-08-23T12:57:44.148Z,14.89
2022-08-23T13:00:53.363Z,12.05
2022-08-23T13:03:58.608Z,12.53
2022-08-23T13:07:06.181Z,13.70
2022-08-23T13:10:10.009Z,10.43
2022-08-23T13:13:15.573Z,7.70
2022-08-23T13:16:27.766Z,7.04
2022-08-23T13:19:32.581Z,8.03
2022-08-23T13:22:37.841Z,7.23
2022-08-23T13:25:41.685Z,7.42
2022-08-23T13:29:01.924Z,6.88
2022-08-23T13:32:06.905Z,7.48
2022-08-23T13:35:28.935Z,11.03
2022-08-23T13:38:32.730Z,15.24
2022-08-23T13:41:38.997Z,12.71
2022-08-23T13:44:43.133Z,12.82
2022-08-23T13:47:48.557Z,10.20
2022-08-23T13:50:51.723Z,8.56
2022-08-23T13:53:57.707Z,7.22
2022-08-23T13:57:05.091Z,6.63
2022-08-23T14:00:10.782Z,8.75
2022-08-23T14:03:13.789Z,11.75
2022-08-23T14:06:16.583Z,10.49
2022-08-23T14:09:20.563Z,7.53
2022-08-23T14:12:27.577Z,6.57
2022-08-23T14:22:16.348Z,6.30
2022-08-23T14:25:20.697Z,5.90
2022-08-23T14:28:25.130Z,5.35
2022-08-23T14:31:27.786Z,6.68
2022-08-23T14:34:30.996Z,5.39
2022-08-23T14:41:00.653Z,8.05
2022-08-23T14:44:03.479Z,6.87
2022-08-23T14:47:06.345Z,6.97
2022-08-23T14:50:11.659Z,6.34
2022-08-23T14:53:17.559Z,6.31
2022-08-23T14:56:21.997Z,5.11
2022-08-23T14:59:24.743Z,4.36
2022-08-23T15:02:27.887Z,4.91
2022-08-23T15:05:30.661Z,4.85
2022-08-23T15:08:33.306Z,4.73
2022-08-23T15:14:59.977Z,4.72
2022-08-23T15:18:04.166Z,5.12
2022-08-23T15:21:07.369Z,5.96
2022-08-23T15:24:10.239Z,5.79
2022-08-23T15:27:14.247Z,5.29
2022-08-23T15:30:17.384Z,5.33
2022-08-23T15:33:26.301Z,6.61
2022-08-23T15:36:32.809Z,6.40
2022-08-23T15:39:35.509Z,8.00
2022-08-23T15:42:39.727Z,10.97
2022-08-23T15:45:42.605Z,7.64
2022-08-23T15:48:49.584Z,6.56
2022-08-23T15:51:52.217Z,6.95
2022-08-23T15:54:55.123Z,9.91
2022-08-23T15:57:59.371Z,10.50
2022-08-23T16:01:02.096Z,13.87
2022-08-23T16:04:05.410Z,13.16
2022-08-23T16:07:08.756Z,14.10
2022-08-23T16:10:12.932Z,16.83
2022-08-23T16:13:17.273Z,18.19
2022-08-23T16:16:22.800Z,18.69
2022-08-23T16:19:25.623Z,18.69
2022-08-23T16:22:31.030Z,17.49
2022-08-23T16:25:34.122Z,18.82
2022-08-23T16:28:38.181Z,19.25
2022-08-23T16:31:40.926Z,16.24
2022-08-23T16:34:43.684Z,15.04
2022-08-23T16:37:46.427Z,15.94
2022-08-23T16:40:49.074Z,17.98
2022-08-23T16:43:53.146Z,19.77
2022-08-23T16:46:56.047Z,20.46
2022-08-23T16:49:58.653Z,21.80
2022-08-23T16:53:06.482Z,22.25
2022-08-23T16:56:11.193Z,23.00
2022-08-23T16:59:15.709Z,23.56
2022-08-23T17:02:26.647Z,24.25
2022-08-23T17:05:29.737Z,24.76
2022-08-23T17:08:32.339Z,24.98
2022-08-23T17:11:36.885Z,24.86
2022-08-23T17:14:41.135Z,25.21
2022-08-23T17:17:44.499Z,25.50
2022-08-23T17:20:47.324Z,25.74
2022-08-23T17:23:49.995Z,25.91
2022-08-23T17:26:52.696Z,25.68
2022-08-23T17:29:57.091Z,25.90
2022-08-23T17:33:00.417Z,26.05
2022-08-23T17:36:03.119Z,27.31
2022-08-23T17:39:08.501Z,26.86
2022-08-23T17:42:11.144Z,27.21
2022-08-23T17:45:15.538Z,27.31
2022-08-23T17:48:20.333Z,28.18
2022-08-23T17:51:23.040Z,27.96
2022-08-23T17:54:25.725Z,28.38
2022-08-23T17:57:28.408Z,28.62
2022-08-23T18:00:36.351Z,29.42
2022-08-23T18:03:39.121Z,29.60
2022-08-23T18:06:41.803Z,29.54
2022-08-23T18:09:48.323Z,30.24
2022-08-23T18:12:51.277Z,30.91
2022-08-23T18:15:55.675Z,31.53
2022-08-23T18:18:59.172Z,31.96
2022-08-23T18:22:02.599Z,32.58
2022-08-23T18:25:06.222Z,33.37
2022-08-23T18:28:09.779Z,33.75
2022-08-23T18:31:16.462Z,33.84
2022-08-23T18:34:21.462Z,34.07
2022-08-23T18:37:24.343Z,34.28
2022-08-23T18:40:27.367Z,34.27
2022-08-23T18:43:37.601Z,34.81
2022-08-23T18:46:43.504Z,35.15
2022-08-23T18:49:46.357Z,34.85
2022-08-23T18:52:48.946Z,34.63
2022-08-23T18:55:51.576Z,35.49
2022-08-23T18:58:54.559Z,35.86
2022-08-23T19:01:58.538Z,36.35
2022-08-23T19:05:03.008Z,36.30
2022-08-23T19:08:06.492Z,36.60
2022-08-23T19:11:11.398Z,37.29
2022-08-23T19:14:14.202Z,37.82
2022-08-23T19:17:18.248Z,38.26
2022-08-23T19:20:21.650Z,38.58
2022-08-23T19:23:24.771Z,38.83
2022-08-23T19:26:31.742Z,38.98
2022-08-23T19:29:34.615Z,39.28
2022-08-23T19:32:39.445Z,39.70
2022-08-23T19:35:42.543Z,40.17
2022-08-23T19:38:45.970Z,40.23
2022-08-23T19:41:49.395Z,40.25
2022-08-23T19:44:52.201Z,40.96
2022-08-23T19:47:59.592Z,40.99
2022-08-23T19:51:02.453Z,41.01
2022-08-23T19:54:10.983Z,41.07
2022-08-23T19:57:14.426Z,41.23
2022-08-23T20:00:19.807Z,41.20
2022-08-23T20:03:24.508Z,41.29
2022-08-23T20:06:27.130Z,42.07
2022-08-23T20:09:31.585Z,42.19
2022-08-23T20:12:34.280Z,42.12
2022-08-23T20:15:39.081Z,42.76
2022-08-23T20:18:44.107Z,42.73
2022-08-23T20:21:46.933Z,43.03
2022-08-23T20:24:52.185Z,43.45
2022-08-23T20:27:55.433Z,43.59
2022-08-23T20:30:59.138Z,44.29
2022-08-23T20:34:04.523Z,44.02
2022-08-23T20:37:07.219Z,44.79
2022-08-23T20:40:11.216Z,44.91
2022-08-23T20:43:13.930Z,45.11
2022-08-23T20:46:16.924Z,45.23
2022-08-23T20:49:21.256Z,45.41
2022-08-23T20:52:23.893Z,45.38
2022-08-23T20:55:26.588Z,45.83
2022-08-23T20:58:29.881Z,45.37
2022-08-23T21:01:32.901Z,45.43
2022-08-23T21:04:36.928Z,45.62
2022-08-23T21:07:42.837Z,46.30
2022-08-23T21:10:45.935Z,46.69
2022-08-23T21:13:48.711Z,46.33
2022-08-23T21:16:51.705Z,46.00
2022-08-23T21:19:55.521Z,45.92
2022-08-23T21:22:58.356Z,46.49
2022-08-23T21:26:01.093Z,46.52
2022-08-23T21:29:04.704Z,46.66
2022-08-23T21:32:07.821Z,47.02
2022-08-23T21:35:13.986Z,47.04
2022-08-23T21:38:16.780Z,47.61
2022-08-23T21:41:30.949Z,47.72
2022-08-23T21:44:33.691Z,47.63
2022-08-23T21:47:37.128Z,47.26
2022-08-23T21:50:41.454Z,47.85
2022-08-23T21:53:44.060Z,47.74
2022-08-23T21:56:46.946Z,48.39
2022-08-23T21:59:49.810Z,48.39
2022-08-23T22:02:52.559Z,48.64
2022-08-23T22:05:56.643Z,48.90
2022-08-23T22:08:59.562Z,48.66
2022-08-23T22:12:02.239Z,48.57
2022-08-23T22:15:05.535Z,48.50
2022-08-23T22:18:08.970Z,48.70
2022-08-23T22:21:13.307Z,47.98
2022-08-23T22:24:16.459Z,48.09
2022-08-23T22:27:19.466Z,48.37
2022-08-23T22:30:22.711Z,48.79
2022-08-23T22:33:25.644Z,49.30
2022-08-23T22:36:30.636Z,49.68
2022-08-23T22:39:33.394Z,50.18
2022-08-23T22:42:36.336Z,50.33
2022-08-23T22:45:42.113Z,50.72
2022-08-23T22:48:48.247Z,50.68
2022-08-23T22:51:55.208Z,51.33
2022-08-23T22:54:58.250Z,51.62
2022-08-23T22:58:01.923Z,52.14
2022-08-23T23:01:07.186Z,52.28
2022-08-23T23:04:17.849Z,52.08
2022-08-23T23:07:35.785Z,52.30
2022-08-23T23:10:38.509Z,52.54
2022-08-23T23:13:41.695Z,53.17
2022-08-23T23:16:44.600Z,53.72
2022-08-23T23:20:05.102Z,53.68
2022-08-23T23:23:12.673Z,53.64
2022-08-23T23:26:15.567Z,53.76
2022-08-23T23:29:18.461Z,53.70
2022-08-23T23:32:21.854Z,54.01
2022-08-23T23:35:24.545Z,53.83
2022-08-23T23:38:28.707Z,54.60
2022-08-23T23:41:31.426Z,54.71
2022-08-23T23:44:34.078Z,54.62
2022-08-23T23:47:36.679Z,54.57
2022-08-23T23:50:45.152Z,54.31
2022-08-23T23:53:50.520Z,54.82
2022-08-23T23:56:53.099Z,55.43
2022-08-23T23:59:56.777Z,55.47
